Terminal Aerodrome Forecast
Issued by NWS

Home | Current Version | Previous Version | Text Only | Print | Product List | Glossary On
Versions: 1 2 3 4 5 6 7 8 9 10 11 12 13 14 15 16 17 18 19 20 21 22 23 24 25 26 27
000
FTUS41 KRNK 301736
TAFLWB
TAF
KLWB 301736Z 3018/0118 12005KT 6SM -RA BR OVC018
     FM302300 11004KT 5SM -RA BR OVC011
     FM010300 13004KT 4SM -RA BR OVC007
     FM011200 19004KT 5SM -RA BR OVC015
     FM011600 22005KT P6SM -SHRA OVC040=

USA.gov is the U.S. government's official web portal to all federal, state and local government web resources and services.